sensor_id;sensor_type;location;lat;lon;timestamp;temperature;humidity
53643;DHT22;39546;45.534;12.048;2023-09-19T00:04:57;24.40;79.30
53643;DHT22;39546;45.534;12.048;2023-09-19T00:10:59;24.30;79.50
53643;DHT22;39546;45.534;12.048;2023-09-19T00:17:05;24.30;79.80
53643;DHT22;39546;45.534;12.048;2023-09-19T00:23:09;24.30;80.40
53643;DHT22;39546;45.534;12.048;2023-09-19T00:29:12;24.10;80.90
53643;DHT22;39546;45.534;12.048;2023-09-19T00:35:18;24.00;80.90
53643;DHT22;39546;45.534;12.048;2023-09-19T00:41:20;24.00;81.30
53643;DHT22;39546;45.534;12.048;2023-09-19T00:47:23;23.90;81.60
53643;DHT22;39546;45.534;12.048;2023-09-19T00:53:25;23.80;81.60
53643;DHT22;39546;45.534;12.048;2023-09-19T00:59:29;23.80;81.80
53643;DHT22;39546;45.534;12.048;2023-09-19T01:05:33;23.80;81.90
53643;DHT22;39546;45.534;12.048;2023-09-19T01:11:40;23.70;82.00
53643;DHT22;39546;45.534;12.048;2023-09-19T01:30:27;23.70;82.20
53643;DHT22;39546;45.534;12.048;2023-09-19T01:36:33;23.60;82.30
53643;DHT22;39546;45.534;12.048;2023-09-19T01:49:22;23.60;82.30
53643;DHT22;39546;45.534;12.048;2023-09-19T01:55:28;23.50;82.30
53643;DHT22;39546;45.534;12.048;2023-09-19T02:01:31;23.40;82.40
53643;DHT22;39546;45.534;12.048;2023-09-19T02:07:34;23.30;82.40
53643;DHT22;39546;45.534;12.048;2023-09-19T02:13:37;23.20;82.30
53643;DHT22;39546;45.534;12.048;2023-09-19T02:19:40;23.00;82.20
53643;DHT22;39546;45.534;12.048;2023-09-19T02:25:42;23.00;82.50
53643;DHT22;39546;45.534;12.048;2023-09-19T02:31:45;22.90;82.40
53643;DHT22;39546;45.534;12.048;2023-09-19T02:37:49;22.90;82.10
53643;DHT22;39546;45.534;12.048;2023-09-19T02:43:52;22.80;81.90
53643;DHT22;39546;45.534;12.048;2023-09-19T02:49:55;22.80;81.50
53643;DHT22;39546;45.534;12.048;2023-09-19T02:55:57;22.80;81.20
53643;DHT22;39546;45.534;12.048;2023-09-19T03:02:01;22.80;81.10
53643;DHT22;39546;45.534;12.048;2023-09-19T03:08:07;22.80;80.90
53643;DHT22;39546;45.534;12.048;2023-09-19T03:14:09;22.90;80.80
53643;DHT22;39546;45.534;12.048;2023-09-19T03:20:12;22.90;80.80
53643;DHT22;39546;45.534;12.048;2023-09-19T03:26:17;23.00;80.80
53643;DHT22;39546;45.534;12.048;2023-09-19T03:32:20;23.00;81.30
53643;DHT22;39546;45.534;12.048;2023-09-19T03:38:23;23.00;81.30
53643;DHT22;39546;45.534;12.048;2023-09-19T03:44:25;23.00;81.30
53643;DHT22;39546;45.534;12.048;2023-09-19T03:50:28;23.00;81.30
53643;DHT22;39546;45.534;12.048;2023-09-19T03:56:30;22.90;81.40
53643;DHT22;39546;45.534;12.048;2023-09-19T04:02:33;22.90;81.80
53643;DHT22;39546;45.534;12.048;2023-09-19T04:08:35;22.90;82.50
53643;DHT22;39546;45.534;12.048;2023-09-19T04:14:37;23.00;82.80
53643;DHT22;39546;45.534;12.048;2023-09-19T04:20:40;22.80;83.10
53643;DHT22;39546;45.534;12.048;2023-09-19T04:26:43;22.80;83.20
53643;DHT22;39546;45.534;12.048;2023-09-19T04:32:45;22.70;83.10
53643;DHT22;39546;45.534;12.048;2023-09-19T04:38:52;22.70;83.20
53643;DHT22;39546;45.534;12.048;2023-09-19T04:44:55;22.70;83.10
53643;DHT22;39546;45.534;12.048;2023-09-19T04:50:57;22.60;83.00
53643;DHT22;39546;45.534;12.048;2023-09-19T04:57:01;22.50;83.10
53643;DHT22;39546;45.534;12.048;2023-09-19T05:03:04;22.40;83.40
53643;DHT22;39546;45.534;12.048;2023-09-19T05:09:07;22.50;83.70
53643;DHT22;39546;45.534;12.048;2023-09-19T05:15:10;22.40;83.60
53643;DHT22;39546;45.534;12.048;2023-09-19T05:21:12;22.40;83.90
53643;DHT22;39546;45.534;12.048;2023-09-19T05:27:15;22.30;83.90
53643;DHT22;39546;45.534;12.048;2023-09-19T05:33:21;22.40;84.00
53643;DHT22;39546;45.534;12.048;2023-09-19T05:39:23;22.40;83.80
53643;DHT22;39546;45.534;12.048;2023-09-19T05:45:25;22.50;83.90
53643;DHT22;39546;45.534;12.048;2023-09-19T05:51:27;22.50;83.70
53643;DHT22;39546;45.534;12.048;2023-09-19T05:57:30;22.60;83.70
53643;DHT22;39546;45.534;12.048;2023-09-19T06:03:32;22.60;83.70
53643;DHT22;39546;45.534;12.048;2023-09-19T06:09:34;22.60;83.80
53643;DHT22;39546;45.534;12.048;2023-09-19T06:15:36;22.70;83.80
53643;DHT22;39546;45.534;12.048;2023-09-19T06:21:38;22.70;83.90
53643;DHT22;39546;45.534;12.048;2023-09-19T06:27:40;22.70;83.90
53643;DHT22;39546;45.534;12.048;2023-09-19T06:33:46;22.80;83.90
53643;DHT22;39546;45.534;12.048;2023-09-19T06:39:48;22.80;83.70
53643;DHT22;39546;45.534;12.048;2023-09-19T06:45:51;22.90;83.70
53643;DHT22;39546;45.534;12.048;2023-09-19T06:51:55;23.00;83.60
53643;DHT22;39546;45.534;12.048;2023-09-19T06:57:57;23.00;83.60
53643;DHT22;39546;45.534;12.048;2023-09-19T07:04:00;23.10;83.50
53643;DHT22;39546;45.534;12.048;2023-09-19T07:10:03;23.20;83.60
53643;DHT22;39546;45.534;12.048;2023-09-19T07:16:12;23.30;83.40
53643;DHT22;39546;45.534;12.048;2023-09-19T07:22:27;23.40;83.40
53643;DHT22;39546;45.534;12.048;2023-09-19T07:28:29;23.50;83.40
53643;DHT22;39546;45.534;12.048;2023-09-19T07:34:31;23.50;83.70
53643;DHT22;39546;45.534;12.048;2023-09-19T07:40:33;23.50;83.60
53643;DHT22;39546;45.534;12.048;2023-09-19T07:46:36;23.70;83.50
53643;DHT22;39546;45.534;12.048;2023-09-19T07:52:38;23.70;83.30
53643;DHT22;39546;45.534;12.048;2023-09-19T07:58:41;23.80;83.40
53643;DHT22;39546;45.534;12.048;2023-09-19T08:04:46;23.90;83.30
53643;DHT22;39546;45.534;12.048;2023-09-19T08:10:55;24.10;83.40
53643;DHT22;39546;45.534;12.048;2023-09-19T08:16:58;24.20;83.40
53643;DHT22;39546;45.534;12.048;2023-09-19T08:23:00;24.30;83.40
53643;DHT22;39546;45.534;12.048;2023-09-19T08:29:02;24.30;82.80
53643;DHT22;39546;45.534;12.048;2023-09-19T08:35:06;24.40;82.60
53643;DHT22;39546;45.534;12.048;2023-09-19T08:41:09;24.50;82.30
53643;DHT22;39546;45.534;12.048;2023-09-19T08:47:13;24.60;81.90
53643;DHT22;39546;45.534;12.048;2023-09-19T08:53:31;24.70;81.90
53643;DHT22;39546;45.534;12.048;2023-09-19T08:59:33;24.80;81.70
53643;DHT22;39546;45.534;12.048;2023-09-19T09:05:38;24.80;81.50
53643;DHT22;39546;45.534;12.048;2023-09-19T09:11:43;24.90;81.80
53643;DHT22;39546;45.534;12.048;2023-09-19T09:17:47;25.00;81.70
53643;DHT22;39546;45.534;12.048;2023-09-19T09:23:54;25.10;81.70
53643;DHT22;39546;45.534;12.048;2023-09-19T09:29:57;25.20;81.70
53643;DHT22;39546;45.534;12.048;2023-09-19T09:36:00;25.30;81.50
53643;DHT22;39546;45.534;12.048;2023-09-19T09:42:04;25.40;80.90
53643;DHT22;39546;45.534;12.048;2023-09-19T09:48:08;25.60;80.50
53643;DHT22;39546;45.534;12.048;2023-09-19T09:54:20;25.80;79.90
53643;DHT22;39546;45.534;12.048;2023-09-19T10:00:23;25.90;79.20
53643;DHT22;39546;45.534;12.048;2023-09-19T10:06:25;25.90;78.90
53643;DHT22;39546;45.534;12.048;2023-09-19T10:12:28;26.10;78.50
53643;DHT22;39546;45.534;12.048;2023-09-19T10:18:33;26.30;78.00
53643;DHT22;39546;45.534;12.048;2023-09-19T10:24:39;26.40;77.50
53643;DHT22;39546;45.534;12.048;2023-09-19T10:30:46;26.60;77.20
53643;DHT22;39546;45.534;12.048;2023-09-19T10:36:51;26.90;76.90
53643;DHT22;39546;45.534;12.048;2023-09-19T10:42:54;27.10;76.90
53643;DHT22;39546;45.534;12.048;2023-09-19T10:49:00;27.30;76.20
53643;DHT22;39546;45.534;12.048;2023-09-19T10:55:03;27.40;75.80
53643;DHT22;39546;45.534;12.048;2023-09-19T11:01:05;27.00;76.20
53643;DHT22;39546;45.534;12.048;2023-09-19T11:13:25;27.40;74.70
53643;DHT22;39546;45.534;12.048;2023-09-19T11:26:41;28.30;73.20
53643;DHT22;39546;45.534;12.048;2023-09-19T11:33:21;28.60;72.90
53643;DHT22;39546;45.534;12.048;2023-09-19T11:46:12;28.10;73.30
53643;DHT22;39546;45.534;12.048;2023-09-19T11:52:24;28.30;72.70
53643;DHT22;39546;45.534;12.048;2023-09-19T11:58:26;28.30;72.30
53643;DHT22;39546;45.534;12.048;2023-09-19T12:04:34;28.50;72.10
53643;DHT22;39546;45.534;12.048;2023-09-19T12:10:49;28.40;71.40
53643;DHT22;39546;45.534;12.048;2023-09-19T12:16:56;28.20;71.60
53643;DHT22;39546;45.534;12.048;2023-09-19T12:23:00;27.90;72.20
53643;DHT22;39546;45.534;12.048;2023-09-19T12:29:03;27.80;72.80
53643;DHT22;39546;45.534;12.048;2023-09-19T12:35:07;27.80;71.60
53643;DHT22;39546;45.534;12.048;2023-09-19T12:41:34;27.80;71.40
53643;DHT22;39546;45.534;12.048;2023-09-19T12:47:37;27.80;71.00
53643;DHT22;39546;45.534;12.048;2023-09-19T12:53:42;27.80;70.90
53643;DHT22;39546;45.534;12.048;2023-09-19T12:59:46;27.90;70.20
53643;DHT22;39546;45.534;12.048;2023-09-19T13:05:56;28.00;69.90
53643;DHT22;39546;45.534;12.048;2023-09-19T13:12:39;28.10;69.30
53643;DHT22;39546;45.534;12.048;2023-09-19T13:18:45;28.30;68.80
53643;DHT22;39546;45.534;12.048;2023-09-19T13:24:49;28.30;68.60
53643;DHT22;39546;45.534;12.048;2023-09-19T13:30:53;28.40;68.10
53643;DHT22;39546;45.534;12.048;2023-09-19T13:36:57;28.30;68.10
53643;DHT22;39546;45.534;12.048;2023-09-19T13:43:04;28.40;67.70
53643;DHT22;39546;45.534;12.048;2023-09-19T13:49:08;28.20;67.90
53643;DHT22;39546;45.534;12.048;2023-09-19T13:55:11;28.10;68.10
53643;DHT22;39546;45.534;12.048;2023-09-19T14:01:16;27.90;68.10
53643;DHT22;39546;45.534;12.048;2023-09-19T14:07:19;27.90;68.40
53643;DHT22;39546;45.534;12.048;2023-09-19T14:13:21;27.80;68.70
53643;DHT22;39546;45.534;12.048;2023-09-19T14:19:43;27.70;69.00
53643;DHT22;39546;45.534;12.048;2023-09-19T14:25:45;27.70;69.00
53643;DHT22;39546;45.534;12.048;2023-09-19T14:31:47;27.60;69.30
53643;DHT22;39546;45.534;12.048;2023-09-19T14:37:50;27.60;69.40
53643;DHT22;39546;45.534;12.048;2023-09-19T14:43:52;27.70;69.30
53643;DHT22;39546;45.534;12.048;2023-09-19T14:49:54;27.80;68.80
53643;DHT22;39546;45.534;12.048;2023-09-19T14:56:00;28.20;67.80
53643;DHT22;39546;45.534;12.048;2023-09-19T15:02:03;28.50;67.20
53643;DHT22;39546;45.534;12.048;2023-09-19T15:08:06;28.70;66.80
53643;DHT22;39546;45.534;12.048;2023-09-19T15:14:08;28.90;66.30
53643;DHT22;39546;45.534;12.048;2023-09-19T15:20:10;29.20;65.70
53643;DHT22;39546;45.534;12.048;2023-09-19T15:26:15;29.50;69.50
53643;DHT22;39546;45.534;12.048;2023-09-19T15:32:24;29.30;71.70
53643;DHT22;39546;45.534;12.048;2023-09-19T15:38:26;28.80;74.80
53643;DHT22;39546;45.534;12.048;2023-09-19T15:44:30;28.40;75.30
53643;DHT22;39546;45.534;12.048;2023-09-19T15:50:32;28.20;76.10
53643;DHT22;39546;45.534;12.048;2023-09-19T15:56:35;28.00;75.60
53643;DHT22;39546;45.534;12.048;2023-09-19T16:02:37;27.80;75.60
53643;DHT22;39546;45.534;12.048;2023-09-19T16:08:42;27.50;75.70
53643;DHT22;39546;45.534;12.048;2023-09-19T16:14:45;27.40;75.30
53643;DHT22;39546;45.534;12.048;2023-09-19T16:20:47;27.40;74.50
53643;DHT22;39546;45.534;12.048;2023-09-19T16:26:50;27.30;74.40
53643;DHT22;39546;45.534;12.048;2023-09-19T16:32:53;27.10;74.30
53643;DHT22;39546;45.534;12.048;2023-09-19T16:38:55;26.90;74.30
53643;DHT22;39546;45.534;12.048;2023-09-19T16:44:58;26.70;74.80
53643;DHT22;39546;45.534;12.048;2023-09-19T16:51:02;26.50;75.40
53643;DHT22;39546;45.534;12.048;2023-09-19T16:57:11;26.30;75.70
53643;DHT22;39546;45.534;12.048;2023-09-19T17:03:15;26.30;75.70
53643;DHT22;39546;45.534;12.048;2023-09-19T17:09:17;26.20;76.10
53643;DHT22;39546;45.534;12.048;2023-09-19T17:15:21;26.00;76.80
53643;DHT22;39546;45.534;12.048;2023-09-19T17:21:24;25.90;77.00
53643;DHT22;39546;45.534;12.048;2023-09-19T17:27:26;25.80;77.30
53643;DHT22;39546;45.534;12.048;2023-09-19T17:33:28;25.80;78.10
53643;DHT22;39546;45.534;12.048;2023-09-19T17:39:31;25.70;78.00
53643;DHT22;39546;45.534;12.048;2023-09-19T17:45:33;25.60;77.70
53643;DHT22;39546;45.534;12.048;2023-09-19T17:51:35;25.60;77.70
53643;DHT22;39546;45.534;12.048;2023-09-19T17:57:38;25.50;78.10
53643;DHT22;39546;45.534;12.048;2023-09-19T18:03:42;25.40;78.10
53643;DHT22;39546;45.534;12.048;2023-09-19T18:09:45;25.30;78.50
53643;DHT22;39546;45.534;12.048;2023-09-19T18:15:48;25.20;78.90
53643;DHT22;39546;45.534;12.048;2023-09-19T18:21:51;25.20;78.80
53643;DHT22;39546;45.534;12.048;2023-09-19T18:28:05;25.20;78.80
53643;DHT22;39546;45.534;12.048;2023-09-19T18:34:07;25.10;78.80
53643;DHT22;39546;45.534;12.048;2023-09-19T18:40:12;25.10;78.90
53643;DHT22;39546;45.534;12.048;2023-09-19T18:46:24;25.00;79.10
53643;DHT22;39546;45.534;12.048;2023-09-19T18:52:26;25.00;79.00
53643;DHT22;39546;45.534;12.048;2023-09-19T18:58:28;24.90;79.20
53643;DHT22;39546;45.534;12.048;2023-09-19T19:04:30;24.90;79.20
53643;DHT22;39546;45.534;12.048;2023-09-19T19:10:38;24.80;79.10
53643;DHT22;39546;45.534;12.048;2023-09-19T19:16:41;24.80;79.30
53643;DHT22;39546;45.534;12.048;2023-09-19T19:22:44;24.70;79.90
53643;DHT22;39546;45.534;12.048;2023-09-19T19:28:46;24.60;79.90
53643;DHT22;39546;45.534;12.048;2023-09-19T19:34:53;24.50;80.10
53643;DHT22;39546;45.534;12.048;2023-09-19T19:41:02;24.40;80.70
53643;DHT22;39546;45.534;12.048;2023-09-19T19:47:05;24.40;80.60
53643;DHT22;39546;45.534;12.048;2023-09-19T19:53:08;24.30;80.60
53643;DHT22;39546;45.534;12.048;2023-09-19T19:59:10;24.20;80.90
53643;DHT22;39546;45.534;12.048;2023-09-19T20:05:18;24.00;81.80
53643;DHT22;39546;45.534;12.048;2023-09-19T20:11:20;24.00;82.30
53643;DHT22;39546;45.534;12.048;2023-09-19T20:17:23;23.90;82.70
53643;DHT22;39546;45.534;12.048;2023-09-19T20:23:26;23.80;83.00
53643;DHT22;39546;45.534;12.048;2023-09-19T20:29:29;24.00;83.00
53643;DHT22;39546;45.534;12.048;2023-09-19T20:35:35;24.10;82.50
53643;DHT22;39546;45.534;12.048;2023-09-19T20:41:40;24.00;82.70
53643;DHT22;39546;45.534;12.048;2023-09-19T20:47:43;23.80;83.20
53643;DHT22;39546;45.534;12.048;2023-09-19T20:54:13;23.80;83.70
53643;DHT22;39546;45.534;12.048;2023-09-19T21:00:18;23.80;83.70
53643;DHT22;39546;45.534;12.048;2023-09-19T21:06:21;23.90;83.60
53643;DHT22;39546;45.534;12.048;2023-09-19T21:12:24;23.90;83.30
53643;DHT22;39546;45.534;12.048;2023-09-19T21:18:26;24.00;83.30
53643;DHT22;39546;45.534;12.048;2023-09-19T21:24:28;24.00;83.40
53643;DHT22;39546;45.534;12.048;2023-09-19T21:30:34;24.00;83.70
53643;DHT22;39546;45.534;12.048;2023-09-19T21:36:36;23.90;83.80
53643;DHT22;39546;45.534;12.048;2023-09-19T21:42:38;23.90;83.90
53643;DHT22;39546;45.534;12.048;2023-09-19T21:48:46;23.90;83.70
53643;DHT22;39546;45.534;12.048;2023-09-19T21:54:52;23.80;83.70
53643;DHT22;39546;45.534;12.048;2023-09-19T22:00:55;23.80;83.60
53643;DHT22;39546;45.534;12.048;2023-09-19T22:06:57;23.80;83.70
53643;DHT22;39546;45.534;12.048;2023-09-19T22:12:59;23.70;84.00
53643;DHT22;39546;45.534;12.048;2023-09-19T22:19:05;23.70;84.30
53643;DHT22;39546;45.534;12.048;2023-09-19T22:25:08;23.80;84.20
53643;DHT22;39546;45.534;12.048;2023-09-19T22:31:16;23.70;84.30
53643;DHT22;39546;45.534;12.048;2023-09-19T22:37:19;23.70;84.20
53643;DHT22;39546;45.534;12.048;2023-09-19T22:43:23;23.70;84.20
53643;DHT22;39546;45.534;12.048;2023-09-19T22:49:33;23.70;84.20
53643;DHT22;39546;45.534;12.048;2023-09-19T22:55:36;23.60;84.50
53643;DHT22;39546;45.534;12.048;2023-09-19T23:01:44;23.50;84.50
53643;DHT22;39546;45.534;12.048;2023-09-19T23:07:53;23.50;84.60
53643;DHT22;39546;45.534;12.048;2023-09-19T23:13:59;23.50;84.80
53643;DHT22;39546;45.534;12.048;2023-09-19T23:20:03;23.50;84.60
53643;DHT22;39546;45.534;12.048;2023-09-19T23:26:06;23.50;84.80
53643;DHT22;39546;45.534;12.048;2023-09-19T23:32:09;23.50;85.00
53643;DHT22;39546;45.534;12.048;2023-09-19T23:38:16;23.40;85.20
53643;DHT22;39546;45.534;12.048;2023-09-19T23:44:18;23.50;85.20
53643;DHT22;39546;45.534;12.048;2023-09-19T23:50:20;23.40;85.10
53643;DHT22;39546;45.534;12.048;2023-09-19T23:56:26;23.40;85.10
